createdAt,value
2018-11-29T00:00:26.361Z,7.13
2018-11-29T00:02:54.870Z,7.03
2018-11-29T00:05:23.366Z,7.87
2018-11-29T00:07:51.850Z,6.57
2018-11-29T00:10:20.354Z,7.53
2018-11-29T00:12:48.808Z,7.23
2018-11-29T00:15:17.270Z,6.87
2018-11-29T00:17:45.792Z,6.83
2018-11-29T00:20:15.246Z,7.23
2018-11-29T00:22:44.641Z,7.50
2018-11-29T00:25:13.971Z,7.20
2018-11-29T00:27:42.887Z,6.90
2018-11-29T00:30:16.301Z,7.50
2018-11-29T00:32:45.050Z,7.40
2018-11-29T00:35:14.279Z,6.83
2018-11-29T00:37:42.822Z,7.03
2018-11-29T00:40:15.342Z,7.53
2018-11-29T00:42:44.431Z,7.40
2018-11-29T00:45:15.561Z,7.90
2018-11-29T00:47:44.533Z,7.00
2018-11-29T00:50:13.740Z,8.03
2018-11-29T00:52:43.191Z,7.63
2018-11-29T00:55:14.195Z,7.50
2018-11-29T00:57:42.584Z,7.73
2018-11-29T01:00:12.956Z,7.23
2018-11-29T01:02:41.389Z,8.63
2018-11-29T01:05:09.881Z,8.50
2018-11-29T01:07:38.408Z,8.53
2018-11-29T01:10:10.163Z,8.63
2018-11-29T01:12:38.578Z,8.83
2018-11-29T01:15:09.121Z,9.37
2018-11-29T01:17:37.570Z,9.00
2018-11-29T01:20:08.042Z,9.23
2018-11-29T01:22:36.441Z,9.07
2018-11-29T01:25:05.633Z,9.33
2018-11-29T01:27:34.049Z,9.43
2018-11-29T01:30:03.109Z,9.83
2018-11-29T01:32:31.539Z,9.67
2018-11-29T01:34:59.999Z,9.13
2018-11-29T01:37:28.442Z,10.20
2018-11-29T01:39:56.852Z,9.67
2018-11-29T01:42:25.337Z,10.40
2018-11-29T01:44:53.774Z,10.50
2018-11-29T01:47:22.215Z,10.17
2018-11-29T01:49:52.657Z,10.20
2018-11-29T01:52:21.095Z,9.73
2018-11-29T01:54:49.496Z,9.53
2018-11-29T01:57:17.990Z,9.83
2018-11-29T01:59:46.418Z,10.50
2018-11-29T02:02:14.893Z,9.77
2018-11-29T02:04:43.344Z,10.67
2018-11-29T02:07:11.783Z,10.10
2018-11-29T02:09:40.211Z,11.33
2018-11-29T02:12:08.635Z,9.97
2018-11-29T02:14:37.054Z,10.60
2018-11-29T02:17:05.849Z,10.43
2018-11-29T02:19:34.281Z,10.07
2018-11-29T02:22:02.747Z,10.27
2018-11-29T02:24:31.226Z,13.23
2018-11-29T02:26:59.658Z,10.97
2018-11-29T02:29:28.110Z,10.70
2018-11-29T02:31:56.531Z,11.57
2018-11-29T02:34:24.961Z,10.17
2018-11-29T02:36:53.441Z,10.10
2018-11-29T02:39:21.902Z,10.97
2018-11-29T02:41:50.312Z,11.23
2018-11-29T02:44:18.821Z,11.73
2018-11-29T02:46:47.308Z,12.27
2018-11-29T02:49:15.867Z,11.47
2018-11-29T02:51:44.325Z,10.63
2018-11-29T02:54:12.803Z,11.67
2018-11-29T02:56:41.310Z,11.83
2018-11-29T02:59:09.803Z,10.83
2018-11-29T03:01:38.186Z,11.13
2018-11-29T03:04:06.687Z,12.00
2018-11-29T03:06:35.086Z,11.90
2018-11-29T03:09:03.932Z,11.43
2018-11-29T03:11:32.683Z,10.83
2018-11-29T03:14:01.079Z,11.50
2018-11-29T03:16:29.533Z,11.30
2018-11-29T03:18:58.000Z,10.57
2018-11-29T03:21:26.438Z,10.97
2018-11-29T03:23:54.890Z,11.37
2018-11-29T03:26:23.294Z,11.17
2018-11-29T03:28:51.698Z,11.27
2018-11-29T03:31:20.185Z,11.90
2018-11-29T03:33:48.600Z,11.90
2018-11-29T03:36:17.089Z,11.23
2018-11-29T03:38:45.530Z,11.50
2018-11-29T03:41:13.968Z,12.23
2018-11-29T03:43:43.096Z,11.97
2018-11-29T03:46:11.539Z,12.40
2018-11-29T03:48:39.963Z,12.23
2018-11-29T03:51:08.418Z,11.87
2018-11-29T03:53:36.828Z,11.83
2018-11-29T03:56:05.812Z,12.63
2018-11-29T03:58:34.455Z,13.57
2018-11-29T04:01:02.941Z,12.43
2018-11-29T04:03:31.343Z,12.70
2018-11-29T04:05:59.779Z,12.77
2018-11-29T04:08:28.199Z,12.73
2018-11-29T04:10:56.648Z,13.70
2018-11-29T04:13:25.106Z,13.10
2018-11-29T04:15:53.560Z,12.73
2018-11-29T04:18:21.974Z,12.13
2018-11-29T04:20:50.888Z,12.07
2018-11-29T04:23:19.363Z,13.33
2018-11-29T04:25:47.823Z,13.03
2018-11-29T04:28:16.231Z,14.17
2018-11-29T04:30:44.676Z,13.57
2018-11-29T04:33:13.110Z,13.23
2018-11-29T04:35:41.558Z,13.60
2018-11-29T04:38:09.991Z,12.93
2018-11-29T04:40:38.416Z,13.17
2018-11-29T04:43:07.163Z,13.30
2018-11-29T04:45:49.466Z,12.80
2018-11-29T04:48:17.944Z,12.93
2018-11-29T04:50:46.410Z,13.47
2018-11-29T04:53:14.824Z,13.07
2018-11-29T04:55:43.508Z,13.43
2018-11-29T04:58:11.925Z,14.13
2018-11-29T05:00:40.337Z,12.77
2018-11-29T05:03:08.751Z,12.47
2018-11-29T05:05:37.439Z,13.27
2018-11-29T05:08:06.311Z,12.60
2018-11-29T05:10:34.739Z,11.87
2018-11-29T05:13:03.898Z,12.37
2018-11-29T05:15:32.323Z,12.13
2018-11-29T05:18:00.756Z,12.57
2018-11-29T05:20:29.146Z,12.23
2018-11-29T05:22:57.592Z,12.40
2018-11-29T05:25:26.105Z,12.03
2018-11-29T05:27:54.526Z,12.27
2018-11-29T05:30:23.114Z,12.10
2018-11-29T05:32:51.574Z,11.93
2018-11-29T05:35:20.039Z,11.43
2018-11-29T05:37:48.500Z,12.47
2018-11-29T05:40:16.986Z,11.77
2018-11-29T05:42:45.529Z,11.83
2018-11-29T05:45:13.945Z,11.10
2018-11-29T05:47:42.348Z,11.60
2018-11-29T05:50:11.686Z,11.80
2018-11-29T05:52:41.690Z,12.85
2018-11-29T05:55:10.281Z,11.77
2018-11-29T05:57:39.002Z,12.23
2018-11-29T06:00:11.246Z,11.67
2018-11-29T06:02:39.759Z,11.50
2018-11-29T06:05:09.576Z,12.20
2018-11-29T06:07:38.053Z,11.93
2018-11-29T06:10:07.191Z,12.23
2018-11-29T06:12:35.638Z,11.23
2018-11-29T06:15:04.632Z,12.77
2018-11-29T06:17:33.086Z,11.27
2018-11-29T06:20:01.570Z,12.27
2018-11-29T06:22:30.039Z,12.70
2018-11-29T06:24:58.548Z,13.97
2018-11-29T06:27:27.028Z,12.93
2018-11-29T06:29:55.463Z,12.93
2018-11-29T06:32:23.980Z,13.07
2018-11-29T06:34:52.418Z,13.13
2018-11-29T06:37:20.975Z,12.57
2018-11-29T06:40:06.385Z,13.33
2018-11-29T06:42:34.875Z,12.57
2018-11-29T06:45:03.411Z,13.30
2018-11-29T06:47:31.970Z,13.57
2018-11-29T06:50:08.967Z,13.27
2018-11-29T06:52:37.672Z,13.23
2018-11-29T06:55:11.103Z,14.35
2018-11-29T06:57:39.592Z,12.93
2018-11-29T07:00:30.540Z,14.60
2018-11-29T07:02:59.342Z,14.20
2018-11-29T07:05:27.779Z,14.67
2018-11-29T07:07:56.226Z,13.23
2018-11-29T07:10:30.091Z,14.20
2018-11-29T07:12:58.541Z,14.70
2018-11-29T07:15:27.862Z,14.60
2018-11-29T07:17:56.938Z,13.97
2018-11-29T07:20:25.342Z,15.00
2018-11-29T07:22:53.785Z,13.97
2018-11-29T07:25:22.282Z,15.23
2018-11-29T07:27:50.802Z,14.43
2018-11-29T07:30:19.379Z,15.57
2018-11-29T07:32:47.923Z,14.50
2018-11-29T07:35:17.078Z,16.23
2018-11-29T07:37:45.667Z,15.10
2018-11-29T07:40:18.738Z,15.13
2018-11-29T07:42:49.673Z,15.30
2018-11-29T07:45:19.039Z,14.57
2018-11-29T07:47:47.781Z,14.53
2018-11-29T07:50:17.346Z,15.63
2018-11-29T07:52:45.867Z,16.17
2018-11-29T07:55:16.335Z,15.33
2018-11-29T07:58:05.635Z,15.27
2018-11-29T08:00:34.156Z,16.57
2018-11-29T08:03:02.768Z,14.37
2018-11-29T08:05:31.265Z,15.90
2018-11-29T08:07:59.962Z,18.37
2018-11-29T08:10:28.498Z,15.60
2018-11-29T08:12:57.043Z,15.93
2018-11-29T08:15:25.475Z,16.13
2018-11-29T08:17:53.973Z,16.53
2018-11-29T08:20:22.598Z,16.90
2018-11-29T08:22:51.039Z,14.80
2018-11-29T08:25:19.515Z,16.93
2018-11-29T08:27:48.004Z,17.48
2018-11-29T08:30:16.787Z,17.73
2018-11-29T08:32:45.943Z,16.70
2018-11-29T08:35:15.163Z,17.50
2018-11-29T08:37:44.731Z,16.57
2018-11-29T08:40:20.287Z,16.13
2018-11-29T08:42:48.906Z,17.03
2018-11-29T08:45:17.394Z,14.73
2018-11-29T08:47:46.000Z,16.00
2018-11-29T08:50:15.168Z,16.90
2018-11-29T08:52:44.870Z,16.33
2018-11-29T08:55:17.390Z,16.07
2018-11-29T08:57:46.336Z,16.27
2018-11-29T09:00:17.161Z,18.15
2018-11-29T09:02:45.653Z,16.70
2018-11-29T09:05:14.477Z,17.87
2018-11-29T09:07:43.978Z,17.53
2018-11-29T09:10:13.678Z,15.30
2018-11-29T09:12:42.206Z,16.53
2018-11-29T09:15:12.660Z,16.50
2018-11-29T09:17:41.509Z,17.10
2018-11-29T09:20:13.032Z,18.20
2018-11-29T09:22:41.633Z,17.23
2018-11-29T09:25:12.356Z,16.87
2018-11-29T09:27:40.854Z,17.83
2018-11-29T09:30:13.535Z,17.77
2018-11-29T09:32:42.534Z,17.43
2018-11-29T09:35:11.022Z,17.30
2018-11-29T09:37:39.608Z,18.05
2018-11-29T09:40:11.521Z,19.03
2018-11-29T09:42:40.267Z,17.80
2018-11-29T09:45:16.124Z,18.50
2018-11-29T09:47:45.606Z,19.53
2018-11-29T09:50:14.930Z,19.90
2018-11-29T09:52:43.389Z,19.37
2018-11-29T09:55:12.917Z,18.57
2018-11-29T09:57:41.809Z,20.03
2018-11-29T10:00:13.691Z,19.13
2018-11-29T10:02:43.094Z,18.10
2018-11-29T10:05:12.198Z,21.40
2018-11-29T10:07:40.603Z,18.03
2018-11-29T10:10:10.672Z,19.73
2018-11-29T10:12:39.673Z,18.80
2018-11-29T10:15:11.663Z,17.03
2018-11-29T10:17:40.151Z,18.70
2018-11-29T10:20:10.420Z,21.03
2018-11-29T10:22:39.459Z,17.70
2018-11-29T10:25:10.439Z,19.77
2018-11-29T10:27:39.058Z,17.10
2018-11-29T10:30:12.576Z,17.63
2018-11-29T10:32:41.024Z,18.30
2018-11-29T10:35:09.516Z,17.80
2018-11-29T10:40:28.533Z,17.13
2018-11-29T10:42:57.040Z,17.03
2018-11-29T10:45:25.513Z,17.00
2018-11-29T10:47:54.730Z,18.23
2018-11-29T10:50:23.222Z,17.13
2018-11-29T10:52:51.767Z,17.03
2018-11-29T10:55:20.616Z,18.13
2018-11-29T10:57:49.160Z,18.47
2018-11-29T11:00:25.961Z,18.53
2018-11-29T11:03:00.772Z,17.60
2018-11-29T11:05:29.475Z,16.63
2018-11-29T11:07:57.907Z,17.63
2018-11-29T11:10:26.418Z,18.60
2018-11-29T11:12:54.923Z,16.77
2018-11-29T11:15:23.379Z,17.93
2018-11-29T11:17:51.902Z,16.20
2018-11-29T11:20:20.394Z,17.77
2018-11-29T11:22:48.816Z,20.43
2018-11-29T11:25:17.284Z,17.73
2018-11-29T11:30:30.706Z,16.60
2018-11-29T11:32:59.163Z,16.27
2018-11-29T11:35:28.699Z,17.40
2018-11-29T11:37:57.179Z,17.23
2018-11-29T11:40:25.659Z,19.30
2018-11-29T11:42:54.136Z,17.70
2018-11-29T11:45:22.669Z,17.27
2018-11-29T11:47:51.119Z,17.50
2018-11-29T11:50:21.756Z,18.07
2018-11-29T11:52:50.610Z,18.07
2018-11-29T11:55:19.485Z,17.70
2018-11-29T11:57:48.151Z,17.47
2018-11-29T12:00:32.161Z,15.63
2018-11-29T12:03:11.947Z,17.10
2018-11-29T12:05:40.402Z,17.57
2018-11-29T12:08:08.919Z,18.30
2018-11-29T12:10:37.979Z,19.73
2018-11-29T12:13:07.511Z,18.07
2018-11-29T12:15:36.903Z,20.93
2018-11-29T12:18:06.180Z,17.80
2018-11-29T12:20:34.670Z,18.77
2018-11-29T12:23:03.163Z,18.83
2018-11-29T12:25:31.660Z,19.53
2018-11-29T12:28:00.137Z,18.13
2018-11-29T12:30:33.174Z,20.17
2018-11-29T12:33:03.083Z,17.97
2018-11-29T12:35:31.657Z,18.27
2018-11-29T12:38:00.146Z,17.13
2018-11-29T12:40:28.657Z,17.37
2018-11-29T12:42:57.134Z,19.50
2018-11-29T12:45:25.672Z,16.27
2018-11-29T12:47:54.412Z,15.30
2018-11-29T12:50:25.178Z,16.97
2018-11-29T12:52:53.609Z,15.53
2018-11-29T12:55:23.275Z,17.50
2018-11-29T12:58:04.485Z,15.13
2018-11-29T13:00:21.303Z,15.57
2018-11-29T13:02:55.000Z,15.63
2018-11-29T13:05:23.604Z,15.07
2018-11-29T13:07:52.094Z,15.73
2018-11-29T13:10:23.683Z,16.13
2018-11-29T13:12:51.131Z,16.60
2018-11-29T13:15:21.247Z,14.90
2018-11-29T13:17:49.611Z,16.53
2018-11-29T13:20:18.244Z,14.43
2018-11-29T13:22:46.825Z,14.87
2018-11-29T13:25:17.232Z,15.40
2018-11-29T13:27:45.830Z,14.83
2018-11-29T13:30:16.109Z,14.33
2018-11-29T13:32:44.935Z,15.03
2018-11-29T13:35:17.140Z,14.37
2018-11-29T13:37:51.748Z,18.07
2018-11-29T13:40:20.231Z,14.17
2018-11-29T13:42:48.692Z,13.33
2018-11-29T13:45:17.243Z,14.73
2018-11-29T13:47:45.750Z,14.50
2018-11-29T13:50:17.846Z,15.47
2018-11-29T13:52:46.625Z,14.23
2018-11-29T13:55:15.824Z,15.10
2018-11-29T13:57:47.762Z,15.07
2018-11-29T14:00:18.176Z,15.10
2018-11-29T14:02:47.968Z,14.15
2018-11-29T14:05:16.474Z,16.97
2018-11-29T14:07:44.942Z,15.00
2018-11-29T14:10:18.566Z,13.97
2018-11-29T14:12:47.875Z,15.20
2018-11-29T14:15:17.426Z,14.63
2018-11-29T14:17:45.894Z,13.90
2018-11-29T14:20:14.738Z,15.13
2018-11-29T14:22:43.284Z,12.60
2018-11-29T14:25:13.819Z,13.37
2018-11-29T14:27:44.294Z,14.67
2018-11-29T14:30:17.853Z,12.63
2018-11-29T14:32:46.302Z,12.53
2018-11-29T14:35:14.749Z,14.03
2018-11-29T14:37:43.323Z,12.77
2018-11-29T14:40:15.952Z,13.35
2018-11-29T14:42:44.488Z,13.40
2018-11-29T14:45:14.207Z,14.00
2018-11-29T14:47:42.628Z,13.73
2018-11-29T14:50:24.791Z,14.83
2018-11-29T14:52:53.306Z,13.00
2018-11-29T14:55:21.987Z,13.17
2018-11-29T14:57:50.322Z,13.30
2018-11-29T15:00:18.905Z,13.97
2018-11-29T15:02:47.417Z,12.97
2018-11-29T15:05:23.500Z,13.95
2018-11-29T15:07:52.038Z,15.33
2018-11-29T15:10:20.495Z,18.37
2018-11-29T15:12:48.992Z,15.03
2018-11-29T15:15:17.826Z,14.13
2018-11-29T15:17:47.138Z,15.07
2018-11-29T15:20:20.256Z,12.80
2018-11-29T15:22:48.709Z,12.07
2018-11-29T15:25:17.285Z,13.50
2018-11-29T15:27:45.738Z,12.23
2018-11-29T15:30:17.386Z,13.87
2018-11-29T15:32:45.894Z,13.47
2018-11-29T15:35:14.357Z,12.77
2018-11-29T15:37:43.132Z,13.87
2018-11-29T15:40:17.251Z,12.37
2018-11-29T15:42:46.035Z,16.70
2018-11-29T15:45:18.823Z,13.20
2018-11-29T15:47:49.754Z,15.83
2018-11-29T15:50:19.316Z,12.77
2018-11-29T15:52:47.973Z,14.43
2018-11-29T15:55:18.498Z,13.97
2018-11-29T15:57:47.949Z,13.83
2018-11-29T16:00:19.376Z,13.30
2018-11-29T16:02:48.401Z,14.55
2018-11-29T16:05:16.925Z,13.03
2018-11-29T16:07:45.451Z,13.73
2018-11-29T16:13:09.481Z,15.70
2018-11-29T16:15:38.401Z,13.80
2018-11-29T16:18:07.007Z,12.40
2018-11-29T16:20:37.227Z,12.97
2018-11-29T16:28:52.603Z,15.67
2018-11-29T16:31:21.057Z,13.90
2018-11-29T16:36:42.625Z,14.33
2018-11-29T16:39:11.104Z,13.90
2018-11-29T16:41:39.573Z,13.47
2018-11-29T16:44:08.025Z,12.10
2018-11-29T16:46:36.516Z,14.97
2018-11-29T16:49:05.277Z,13.47
2018-11-29T16:51:34.087Z,12.00
2018-11-29T16:54:02.609Z,13.37
2018-11-29T16:56:31.110Z,16.20
2018-11-29T16:58:59.714Z,12.93
2018-11-29T17:01:28.294Z,12.93
2018-11-29T17:03:56.798Z,14.07
2018-11-29T17:06:25.613Z,13.97
2018-11-29T17:09:06.247Z,12.70
2018-11-29T17:11:34.798Z,14.37
2018-11-29T17:16:17.271Z,14.03
2018-11-29T17:21:48.464Z,12.70
2018-11-29T17:28:26.598Z,11.93
2018-11-29T17:30:55.173Z,12.53
2018-11-29T17:33:23.688Z,12.53
2018-11-29T17:35:52.178Z,13.57
2018-11-29T17:38:20.767Z,13.80
2018-11-29T17:40:50.298Z,12.43
2018-11-29T17:43:18.846Z,12.13
2018-11-29T17:45:47.412Z,12.60
2018-11-29T17:48:15.940Z,18.33
2018-11-29T17:50:44.974Z,13.73
2018-11-29T17:53:13.509Z,14.43
2018-11-29T17:55:42.136Z,13.80
2018-11-29T17:58:13.209Z,12.27
2018-11-29T18:00:42.487Z,13.60
2018-11-29T18:03:11.393Z,13.60
2018-11-29T18:05:39.934Z,14.07
2018-11-29T18:08:08.488Z,11.43
2018-11-29T18:10:38.967Z,12.87
2018-11-29T18:13:12.298Z,12.33
2018-11-29T18:15:40.836Z,13.50
2018-11-29T18:18:09.389Z,12.70
2018-11-29T18:20:38.106Z,13.07
2018-11-29T18:23:07.798Z,12.27
2018-11-29T18:25:36.662Z,13.77
2018-11-29T18:28:05.964Z,12.87
2018-11-29T18:30:34.509Z,12.90
2018-11-29T18:33:03.060Z,13.37
2018-11-29T18:35:31.607Z,12.70
2018-11-29T18:38:00.210Z,14.23
2018-11-29T18:40:28.996Z,14.33
2018-11-29T18:42:58.803Z,13.40
2018-11-29T18:45:28.873Z,11.97
2018-11-29T18:47:57.456Z,12.77
2018-11-29T18:50:26.778Z,13.43
2018-11-29T18:52:55.353Z,13.23
2018-11-29T18:55:24.913Z,14.50
2018-11-29T18:57:54.244Z,13.50
2018-11-29T19:00:24.496Z,14.73
2018-11-29T19:02:56.980Z,12.57
2018-11-29T19:05:22.660Z,12.33
2018-11-29T19:07:51.303Z,13.50
2018-11-29T19:13:13.014Z,12.23
2018-11-29T19:15:41.672Z,12.53
2018-11-29T19:18:10.985Z,12.90
2018-11-29T19:20:39.299Z,12.13
2018-11-29T19:23:08.037Z,13.17
2018-11-29T19:25:36.830Z,12.67
2018-11-29T19:28:06.262Z,13.57
2018-11-29T19:30:34.913Z,11.70
2018-11-29T19:33:10.633Z,12.85
2018-11-29T19:35:39.223Z,11.23
2018-11-29T19:38:07.877Z,12.83
2018-11-29T19:40:36.413Z,12.33
2018-11-29T19:43:05.499Z,11.20
2018-11-29T19:45:34.072Z,11.53
2018-11-29T19:48:02.795Z,12.27
2018-11-29T19:50:31.351Z,11.27
2018-11-29T19:53:02.077Z,10.17
2018-11-29T19:55:32.059Z,12.37
2018-11-29T19:58:00.636Z,11.00
2018-11-29T20:00:29.226Z,12.27
2018-11-29T20:02:57.862Z,12.23
2018-11-29T20:05:26.345Z,11.03
2018-11-29T20:07:54.977Z,10.27
2018-11-29T20:10:24.867Z,10.70
2018-11-29T20:13:15.662Z,10.40
2018-11-29T20:15:46.289Z,10.48
2018-11-29T20:18:15.031Z,11.03
2018-11-29T20:20:44.266Z,9.13
2018-11-29T20:23:13.285Z,10.80
2018-11-29T20:25:43.244Z,10.90
2018-11-29T20:28:11.999Z,9.70
2018-11-29T20:30:40.528Z,10.40
2018-11-29T20:33:09.050Z,12.33
2018-11-29T20:35:37.598Z,9.20
2018-11-29T20:38:06.934Z,8.77
2018-11-29T20:40:37.340Z,9.17
2018-11-29T20:43:06.149Z,10.23
2018-11-29T20:45:40.923Z,9.13
2018-11-29T20:48:18.172Z,9.23
2018-11-29T20:50:47.029Z,10.60
2018-11-29T20:53:18.494Z,8.70
2018-11-29T20:55:46.985Z,9.03
2018-11-29T20:58:15.635Z,9.40
2018-11-29T21:00:44.252Z,9.30
2018-11-29T21:03:12.793Z,10.23
2018-11-29T21:05:42.379Z,9.73
2018-11-29T21:08:11.820Z,8.40
2018-11-29T21:10:40.463Z,10.57
2018-11-29T21:13:09.076Z,9.13
2018-11-29T21:15:38.804Z,10.33
2018-11-29T21:18:08.873Z,10.27
2018-11-29T21:20:37.498Z,9.43
2018-11-29T21:23:07.954Z,10.73
2018-11-29T21:25:36.435Z,11.40
2018-11-29T21:28:05.612Z,9.27
2018-11-29T21:30:34.180Z,9.93
2018-11-29T21:33:02.849Z,8.93
2018-11-29T21:35:31.392Z,8.83
2018-11-29T21:38:00.121Z,8.53
2018-11-29T21:40:30.952Z,8.03
2018-11-29T21:42:59.436Z,10.33
2018-11-29T21:45:27.944Z,7.97
2018-11-29T21:47:56.484Z,8.80
2018-11-29T21:50:25.003Z,8.43
2018-11-29T21:52:53.537Z,10.97
2018-11-29T21:55:22.084Z,9.05
2018-11-29T21:57:50.705Z,9.03
2018-11-29T22:00:21.431Z,9.00
2018-11-29T22:02:54.103Z,9.50
2018-11-29T22:05:22.590Z,9.90
2018-11-29T22:07:51.113Z,8.87
2018-11-29T22:10:19.757Z,8.20
2018-11-29T22:12:48.301Z,10.40
2018-11-29T22:15:16.851Z,9.20
2018-11-29T22:18:01.499Z,10.20
2018-11-29T22:20:24.665Z,8.07
2018-11-29T22:22:53.128Z,8.77
2018-11-29T22:25:21.625Z,8.10
2018-11-29T22:27:50.113Z,8.80
2018-11-29T22:30:18.633Z,9.57
2018-11-29T22:32:47.105Z,9.27
2018-11-29T22:35:15.680Z,9.57
2018-11-29T22:37:44.138Z,8.93
2018-11-29T22:40:12.656Z,10.93
2018-11-29T22:42:41.143Z,8.30
2018-11-29T22:45:09.701Z,8.37
2018-11-29T22:47:38.198Z,11.50
2018-11-29T22:50:08.247Z,11.33
2018-11-29T22:52:36.961Z,8.38
2018-11-29T22:55:05.957Z,10.77
2018-11-29T22:57:34.442Z,7.97
2018-11-29T23:00:02.947Z,7.43
2018-11-29T23:02:31.410Z,8.60
2018-11-29T23:04:59.983Z,7.20
2018-11-29T23:07:28.462Z,13.37
2018-11-29T23:09:56.961Z,7.50
2018-11-29T23:12:25.499Z,7.90
2018-11-29T23:14:54.321Z,7.37
2018-11-29T23:17:22.879Z,7.53
2018-11-29T23:19:51.390Z,7.57
2018-11-29T23:22:19.910Z,8.73
2018-11-29T23:24:48.452Z,7.40
2018-11-29T23:27:16.944Z,7.30
2018-11-29T23:29:45.395Z,7.60
2018-11-29T23:32:13.884Z,14.20
2018-11-29T23:34:42.413Z,7.07
2018-11-29T23:37:10.867Z,6.27
2018-11-29T23:39:39.385Z,8.63
2018-11-29T23:42:08.620Z,6.83
2018-11-29T23:44:37.272Z,8.40
2018-11-29T23:47:05.953Z,7.40
2018-11-29T23:49:34.399Z,7.70
2018-11-29T23:52:02.887Z,7.30
2018-11-29T23:54:31.324Z,6.87
2018-11-29T23:56:59.788Z,8.00
2018-11-29T23:59:28.267Z,6.23
